Time;durP1;ratioP1;P1;durP2;ratioP2;P2;SDS_P1;SDS_P2;PMS_P1;PMS_P2;Temp;Humidity;BMP_temperature;BMP_pressure;BME280_temperature;BME280_humidity;BME280_pressure;Samples;Min_cycle;Max_cycle;Signal;HPM_P1;HPM_P2
2022/07/13 00:00:14;;;;;;;3.03;0.60;;;16.20;69.60;;;;;;5130890;27;20388;-76
2022/07/13 00:02:40;;;;;;;1.25;0.50;;;16.20;69.90;;;;;;5129996;27;20375;-77
2022/07/13 00:05:06;;;;;;;1.52;1.00;;;16.20;70.00;;;;;;5130596;27;20059;-77
2022/07/13 00:07:33;;;;;;;2.92;0.75;;;16.30;69.70;;;;;;5130361;27;20100;-77
2022/07/13 00:09:59;;;;;;;1.95;0.85;;;16.30;69.70;;;;;;5130708;27;20115;-78
2022/07/13 00:12:25;;;;;;;0.52;0.52;;;16.30;69.80;;;;;;5130581;27;20120;-76
2022/07/13 00:14:50;;;;;;;1.38;0.88;;;16.20;70.70;;;;;;5130493;27;20073;-76
2022/07/13 00:17:16;;;;;;;1.55;0.80;;;16.20;69.80;;;;;;5130815;27;20027;-77
2022/07/13 00:19:42;;;;;;;1.33;0.77;;;16.20;69.90;;;;;;5130731;27;20042;-77
2022/07/13 00:22:07;;;;;;;2.90;0.50;;;16.10;70.20;;;;;;5130251;27;20015;-76
2022/07/13 00:24:33;;;;;;;2.13;0.85;;;16.10;70.40;;;;;;5130527;27;20020;-76
2022/07/13 00:26:58;;;;;;;5.50;0.98;;;16.00;70.80;;;;;;5130746;27;20020;-77
2022/07/13 00:29:24;;;;;;;3.40;0.60;;;15.90;71.80;;;;;;5130855;27;20020;-76
2022/07/13 00:31:49;;;;;;;2.17;0.70;;;15.90;71.10;;;;;;5130018;27;20096;-76
2022/07/13 00:34:15;;;;;;;0.75;0.65;;;15.90;71.20;;;;;;5130449;27;20032;-76
2022/07/13 00:36:41;;;;;;;0.85;0.70;;;15.90;71.20;;;;;;5130343;27;20028;-76
2022/07/13 00:39:06;;;;;;;2.45;0.80;;;15.90;71.20;;;;;;5130151;27;20088;-77
2022/07/13 00:41:32;;;;;;;1.05;0.50;;;15.90;71.10;;;;;;5130348;27;20068;-76
2022/07/13 00:44:10;;;;;;;2.45;0.70;;;15.90;71.20;;;;;;5112959;28;20028;-76
2022/07/13 00:46:37;;;;;;;0.63;0.63;;;16.00;70.90;;;;;;5130066;27;20042;-77
2022/07/13 00:49:03;;;;;;;3.28;1.00;;;16.00;70.70;;;;;;5130352;27;20020;-76
2022/07/13 00:51:30;;;;;;;3.25;0.77;;;16.00;70.90;;;;;;5130471;27;20028;-76
2022/07/13 00:53:55;;;;;;;1.02;0.50;;;15.90;71.00;;;;;;5130112;27;20024;-76
2022/07/13 00:56:22;;;;;;;2.70;0.98;;;16.00;70.60;;;;;;5131686;27;20379;-76
2022/07/13 00:58:49;;;;;;;0.98;0.63;;;16.10;70.40;;;;;;5132345;27;20042;-76
2022/07/13 01:01:15;;;;;;;1.20;0.70;;;16.10;70.10;;;;;;5131074;27;20051;-77
2022/07/13 01:03:40;;;;;;;1.88;0.77;;;16.10;69.80;;;;;;5129986;27;20030;-76
2022/07/13 01:06:07;;;;;;;3.60;0.88;;;16.20;69.40;;;;;;5112763;28;20107;-76
2022/07/13 01:08:34;;;;;;;1.02;0.43;;;16.20;69.30;;;;;;5129697;27;20092;-76
2022/07/13 01:11:00;;;;;;;0.68;0.50;;;16.20;69.30;;;;;;5129353;27;20053;-76
2022/07/13 01:13:27;;;;;;;0.60;0.60;;;16.30;69.10;;;;;;5129441;27;20463;-76
2022/07/13 01:15:52;;;;;;;0.60;0.60;;;16.20;69.40;;;;;;5129744;27;20119;-76
2022/07/13 01:18:18;;;;;;;1.75;0.98;;;16.00;69.70;;;;;;5129393;27;20042;-76
2022/07/13 01:20:44;;;;;;;0.57;0.52;;;15.90;70.40;;;;;;5129918;27;20024;-77
2022/07/13 01:23:10;;;;;;;3.88;0.80;;;15.80;70.70;;;;;;5129249;27;20038;-77
2022/07/13 01:25:37;;;;;;;2.70;1.05;;;15.80;70.80;;;;;;5129114;27;20023;-76
2022/07/13 01:28:02;;;;;;;2.00;0.80;;;15.90;70.70;;;;;;5129293;27;20069;-77
2022/07/13 01:30:28;;;;;;;2.90;0.70;;;15.80;70.80;;;;;;5129468;27;20020;-76
2022/07/13 01:32:54;;;;;;;0.85;0.65;;;15.70;70.70;;;;;;5129406;27;20050;-76
2022/07/13 01:35:21;;;;;;;2.55;0.60;;;15.80;70.50;;;;;;5128854;27;20035;-76
2022/07/13 01:37:47;;;;;;;0.85;0.52;;;15.80;70.10;;;;;;5129105;27;20024;-75
2022/07/13 01:40:14;;;;;;;0.60;0.50;;;15.90;69.90;;;;;;5129122;27;20023;-76
2022/07/13 01:42:48;;;;;;;1.10;0.52;;;15.90;69.60;;;;;;5128397;27;20024;-76
2022/07/13 01:45:15;;;;;;;0.95;0.60;;;16.00;69.40;;;;;;5129341;27;20023;-76
2022/07/13 01:47:44;;;;;;;2.50;0.60;;;16.10;69.40;;;;;;5129052;27;20050;-76
2022/07/13 01:50:12;;;;;;;0.50;0.40;;;16.00;69.10;;;;;;5129133;27;20314;-76
2022/07/13 01:52:37;;;;;;;1.42;0.65;;;16.00;69.00;;;;;;5129027;27;20019;-76
2022/07/13 01:55:05;;;;;;;0.98;0.52;;;16.00;69.40;;;;;;5129135;27;20046;-76
2022/07/13 01:57:31;;;;;;;3.75;0.70;;;16.00;69.30;;;;;;5128819;27;20019;-77
2022/07/13 02:00:04;;;;;;;1.88;0.60;;;16.00;69.40;;;;;;5128827;27;20039;-77
2022/07/13 02:02:30;;;;;;;1.17;0.75;;;16.00;69.50;;;;;;5123811;27;20054;-76
2022/07/13 02:04:55;;;;;;;1.40;0.60;;;16.00;69.40;;;;;;5128840;28;20106;-77
2022/07/13 02:07:22;;;;;;;2.63;0.60;;;15.90;69.50;;;;;;5128980;28;20023;-77
2022/07/13 02:09:48;;;;;;;3.08;0.50;;;15.90;69.80;;;;;;5129075;28;20455;-78
2022/07/13 02:12:14;;;;;;;0.47;0.47;;;15.90;69.80;;;;;;5129012;28;20046;-77
2022/07/13 02:14:40;;;;;;;1.73;0.68;;;15.80;69.70;;;;;;5129003;28;20487;-78
2022/07/13 02:17:05;;;;;;;6.18;0.85;;;15.80;69.70;;;;;;5129009;28;20049;-77
2022/07/13 02:19:31;;;;;;;0.80;0.80;;;15.70;70.00;;;;;;5128733;28;20042;-77
2022/07/13 02:21:56;;;;;;;1.20;0.65;;;15.60;70.30;;;;;;5128720;28;20353;-78
2022/07/13 02:24:22;;;;;;;2.70;0.82;;;15.70;70.40;;;;;;5129377;27;20024;-77
2022/07/13 02:26:47;;;;;;;0.55;0.50;;;15.60;69.90;;;;;;5132967;27;20023;-77
2022/07/13 02:29:13;;;;;;;0.95;0.70;;;15.70;69.80;;;;;;5132769;27;20022;-77
2022/07/13 02:31:38;;;;;;;2.65;0.57;;;15.80;69.70;;;;;;5132345;27;20052;-75
2022/07/13 02:34:04;;;;;;;1.48;0.80;;;15.70;69.40;;;;;;5132740;27;20072;-74
2022/07/13 02:36:29;;;;;;;0.65;0.45;;;15.70;69.20;;;;;;5132542;27;20039;-76
2022/07/13 02:38:55;;;;;;;2.45;0.63;;;15.80;69.10;;;;;;5132273;27;20040;-76
2022/07/13 02:41:21;;;;;;;1.20;0.60;;;15.80;68.60;;;;;;5132827;27;20098;-77
2022/07/13 02:43:46;;;;;;;3.13;0.77;;;15.90;69.50;;;;;;5133055;27;20034;-77
2022/07/13 02:46:12;;;;;;;2.13;0.47;;;15.80;68.40;;;;;;5132748;27;20023;-76
2022/07/13 02:48:38;;;;;;;1.45;0.52;;;15.80;68.40;;;;;;5132145;27;20031;-77
2022/07/13 02:51:04;;;;;;;2.20;1.00;;;15.80;68.40;;;;;;5132504;27;20016;-77
2022/07/13 02:53:29;;;;;;;0.80;0.60;;;15.80;68.30;;;;;;5132649;27;20040;-77
2022/07/13 02:55:55;;;;;;;2.95;0.80;;;15.80;68.50;;;;;;5132546;27;20030;-77
2022/07/13 02:58:20;;;;;;;3.58;1.08;;;15.80;68.40;;;;;;5132044;27;20534;-77
2022/07/13 03:00:46;;;;;;;2.33;0.63;;;15.90;68.30;;;;;;5132277;27;20372;-77
2022/07/13 03:03:11;;;;;;;1.02;0.60;;;15.90;67.90;;;;;;5132047;27;20019;-77
2022/07/13 03:05:37;;;;;;;2.60;0.60;;;15.90;67.90;;;;;;5132092;27;20425;-77
2022/07/13 03:08:04;;;;;;;5.05;0.70;;;15.80;67.70;;;;;;5131885;27;20028;-77
2022/07/13 03:10:29;;;;;;;1.52;0.80;;;15.80;68.20;;;;;;5132183;27;20513;-77
2022/07/13 03:12:55;;;;;;;2.15;0.77;;;15.70;68.10;;;;;;5132279;27;20024;-76
2022/07/13 03:15:21;;;;;;;1.73;0.73;;;15.60;68.20;;;;;;5132053;27;20027;-77
2022/07/13 03:17:47;;;;;;;3.85;0.77;;;15.60;68.10;;;;;;5131927;27;20416;-77
2022/07/13 03:20:12;;;;;;;1.80;0.75;;;15.60;68.10;;;;;;5132216;27;20050;-76
2022/07/13 03:22:38;;;;;;;1.88;0.82;;;15.60;67.90;;;;;;5131919;27;20020;-77
2022/07/13 03:25:07;;;;;;;1.95;0.60;;;15.60;68.20;;;;;;5131860;27;20410;-77
2022/07/13 03:27:33;;;;;;;5.35;1.10;;;15.60;69.00;;;;;;5131749;27;20386;-77
2022/07/13 03:29:58;;;;;;;0.60;0.60;;;15.60;68.20;;;;;;5131788;27;20023;-76
2022/07/13 03:32:24;;;;;;;5.43;1.00;;;15.60;68.20;;;;;;5115516;28;20051;-78
2022/07/13 03:34:49;;;;;;;2.00;1.15;;;15.60;68.40;;;;;;5114284;28;20037;-77
2022/07/13 03:37:15;;;;;;;2.47;0.93;;;15.40;68.90;;;;;;5114557;28;20028;-76
2022/07/13 03:39:41;;;;;;;2.47;0.70;;;15.40;69.50;;;;;;5131540;27;20040;-77
2022/07/13 03:42:06;;;;;;;1.08;0.95;;;15.30;70.00;;;;;;5131425;27;20016;-77
2022/07/13 03:44:32;;;;;;;2.35;0.70;;;15.20;70.30;;;;;;5114179;28;20028;-77
2022/07/13 03:46:58;;;;;;;3.17;0.90;;;15.10;70.80;;;;;;5130924;27;20019;-77
2022/07/13 03:49:24;;;;;;;2.67;0.70;;;14.90;71.40;;;;;;5131457;27;20027;-77
2022/07/13 03:51:50;;;;;;;1.25;0.90;;;14.80;71.60;;;;;;5131335;27;20493;-78
2022/07/13 03:54:15;;;;;;;4.32;1.10;;;14.80;72.00;;;;;;5131371;27;20031;-78
2022/07/13 03:56:41;;;;;;;2.78;0.85;;;14.80;71.90;;;;;;5115195;28;20490;-78
2022/07/13 03:59:06;;;;;;;1.80;0.70;;;14.80;71.80;;;;;;5131068;27;20035;-78
2022/07/13 04:01:32;;;;;;;3.35;1.35;;;14.80;72.00;;;;;;5130767;27;20015;-77
2022/07/13 04:03:58;;;;;;;1.52;0.60;;;14.80;71.70;;;;;;5130864;27;20144;-77
2022/07/13 04:06:25;;;;;;;1.38;0.80;;;14.90;71.20;;;;;;5130834;27;20019;-76
2022/07/13 04:08:51;;;;;;;5.30;1.05;;;15.00;70.90;;;;;;5130993;27;20091;-77
2022/07/13 04:11:16;;;;;;;1.92;1.10;;;15.10;70.50;;;;;;5130702;27;20062;-76
2022/07/13 04:13:42;;;;;;;1.88;1.08;;;15.10;70.40;;;;;;5130838;27;20100;-76
2022/07/13 04:16:08;;;;;;;2.83;0.80;;;15.00;70.50;;;;;;5130623;27;20483;-76
2022/07/13 04:18:33;;;;;;;2.70;0.80;;;15.10;70.40;;;;;;5130445;27;20030;-76
2022/07/13 04:20:59;;;;;;;2.17;1.00;;;15.10;70.50;;;;;;5130582;27;20118;-76
2022/07/13 04:23:25;;;;;;;2.08;0.68;;;15.10;70.20;;;;;;5130611;27;20016;-76
2022/07/13 04:25:51;;;;;;;0.80;0.80;;;15.10;70.20;;;;;;5130587;27;20026;-76
2022/07/13 04:28:16;;;;;;;2.25;0.82;;;15.20;70.10;;;;;;5130548;27;20035;-77
2022/07/13 04:30:42;;;;;;;1.02;0.82;;;15.20;70.00;;;;;;5130423;27;20068;-77
2022/07/13 04:33:08;;;;;;;4.95;1.40;;;15.20;69.90;;;;;;5129956;27;20138;-77
2022/07/13 04:35:33;;;;;;;3.50;1.10;;;15.30;69.90;;;;;;5130029;27;20027;-77
2022/07/13 04:37:59;;;;;;;2.17;1.00;;;15.30;69.80;;;;;;5129919;27;20031;-76
2022/07/13 04:40:24;;;;;;;4.55;1.23;;;15.40;69.60;;;;;;5130590;27;20065;-76
2022/07/13 04:42:50;;;;;;;3.67;1.15;;;15.40;69.60;;;;;;5129964;27;20027;-74
2022/07/13 04:45:18;;;;;;;2.78;0.77;;;15.30;69.90;;;;;;5130184;27;20384;-75
2022/07/13 04:47:44;;;;;;;1.55;1.10;;;15.30;70.20;;;;;;5129285;27;20024;-77
2022/07/13 04:50:09;;;;;;;5.38;1.00;;;15.30;69.80;;;;;;5130356;27;20024;-77
2022/07/13 04:52:35;;;;;;;1.25;0.90;;;15.40;69.40;;;;;;5130170;27;20348;-76
2022/07/13 04:55:01;;;;;;;5.75;1.10;;;15.50;69.00;;;;;;5129879;27;20072;-76
2022/07/13 04:57:26;;;;;;;2.40;0.85;;;15.60;68.50;;;;;;5129894;27;20026;-77
2022/07/13 04:59:52;;;;;;;1.38;0.90;;;15.70;68.10;;;;;;5129849;27;20131;-78
2022/07/13 05:02:17;;;;;;;5.40;1.00;;;15.90;67.40;;;;;;5129863;27;20348;-78
2022/07/13 05:04:43;;;;;;;2.08;1.13;;;16.00;66.90;;;;;;5129909;27;20353;-78
2022/07/13 05:07:08;;;;;;;2.20;0.85;;;16.10;67.60;;;;;;5129982;27;20410;-78
2022/07/13 05:09:34;;;;;;;1.30;0.85;;;16.20;66.70;;;;;;5129605;27;20051;-78
2022/07/13 05:12:00;;;;;;;1.75;0.70;;;16.40;66.40;;;;;;5112717;28;20031;-77
2022/07/13 05:14:25;;;;;;;4.75;0.90;;;16.50;66.30;;;;;;5129727;27;20020;-77
2022/07/13 05:16:52;;;;;;;2.95;0.80;;;16.70;66.20;;;;;;5129786;27;20104;-77
2022/07/13 05:19:17;;;;;;;5.18;0.85;;;16.80;65.70;;;;;;5129440;27;20032;-77
2022/07/13 05:21:43;;;;;;;1.15;0.80;;;17.00;65.10;;;;;;5129760;27;20031;-77
2022/07/13 05:24:09;;;;;;;2.35;0.90;;;17.10;64.70;;;;;;5129740;27;20028;-77
2022/07/13 05:26:36;;;;;;;2.40;1.27;;;17.20;64.00;;;;;;5128986;27;20495;-76
2022/07/13 05:29:04;;;;;;;3.08;1.10;;;17.30;63.10;;;;;;5113602;28;20065;-78
2022/07/13 05:31:30;;;;;;;2.10;0.85;;;17.50;62.50;;;;;;5112026;28;20114;-75
2022/07/13 05:33:56;;;;;;;1.52;0.82;;;17.70;62.00;;;;;;5113494;28;20031;-78
2022/07/13 05:36:22;;;;;;;1.05;0.80;;;17.90;61.00;;;;;;5129375;27;20160;-77
2022/07/13 05:38:47;;;;;;;2.28;0.77;;;18.20;59.60;;;;;;5129194;27;20434;-77
2022/07/13 05:41:14;;;;;;;3.75;0.70;;;18.30;59.20;;;;;;5129140;27;20023;-77
2022/07/13 05:43:40;;;;;;;2.70;0.68;;;18.50;58.30;;;;;;5128997;27;20024;-77
2022/07/13 05:46:06;;;;;;;2.17;0.75;;;18.60;58.20;;;;;;5129318;27;20027;-77
2022/07/13 05:48:36;;;;;;;3.42;0.90;;;18.70;58.00;;;;;;5129172;27;20031;-77
2022/07/13 05:51:02;;;;;;;1.90;0.55;;;18.80;57.50;;;;;;5129269;27;20115;-77
2022/07/13 05:53:28;;;;;;;2.45;0.80;;;19.00;57.50;;;;;;5129119;27;20087;-76
2022/07/13 05:55:54;;;;;;;1.40;0.60;;;19.10;57.30;;;;;;5128935;27;20016;-76
2022/07/13 05:58:21;;;;;;;2.47;0.98;;;19.20;57.00;;;;;;5128372;27;20110;-77
2022/07/13 06:00:47;;;;;;;7.65;2.33;;;19.40;56.90;;;;;;5128270;27;20133;-77
2022/07/13 06:03:12;;;;;;;7.30;2.20;;;19.50;57.90;;;;;;5128742;27;20052;-77
2022/07/13 06:05:38;;;;;;;6.68;2.10;;;19.50;58.20;;;;;;5128292;28;20516;-77
2022/07/13 06:08:04;;;;;;;6.28;2.08;;;19.60;57.80;;;;;;5128984;28;20092;-77
2022/07/13 06:10:30;;;;;;;7.13;1.80;;;19.60;57.40;;;;;;5128394;28;20027;-77
2022/07/13 06:12:55;;;;;;;2.22;1.38;;;19.70;57.40;;;;;;5128815;28;20051;-78
2022/07/13 06:15:21;;;;;;;3.22;1.50;;;19.80;57.00;;;;;;5111619;28;20060;-77
2022/07/13 06:17:47;;;;;;;4.15;1.40;;;20.00;56.50;;;;;;5128584;28;20503;-77
2022/07/13 06:20:12;;;;;;;2.88;1.30;;;20.20;55.90;;;;;;5112383;28;20081;-77
2022/07/13 06:22:38;;;;;;;2.70;1.42;;;20.30;55.40;;;;;;5128625;28;20203;-78
2022/07/13 06:25:03;;;;;;;3.17;1.73;;;20.50;54.70;;;;;;5129053;28;20023;-77
2022/07/13 06:27:30;;;;;;;4.32;2.60;;;20.70;54.00;;;;;;5128678;28;20062;-78
2022/07/13 06:29:56;;;;;;;4.90;2.35;;;20.80;53.40;;;;;;5128353;28;20027;-77
2022/07/13 06:32:21;;;;;;;7.45;1.33;;;20.90;53.00;;;;;;5128410;28;20051;-77
2022/07/13 06:34:47;;;;;;;2.97;0.90;;;21.00;52.40;;;;;;5128594;28;20020;-77
2022/07/13 06:37:12;;;;;;;3.22;1.35;;;21.10;52.60;;;;;;5128355;28;20368;-77
2022/07/13 06:39:38;;;;;;;2.33;1.23;;;21.10;52.40;;;;;;5131827;28;20032;-77
2022/07/13 06:42:04;;;;;;;2.30;1.35;;;21.20;52.30;;;;;;5129686;28;20432;-77
2022/07/13 06:44:29;;;;;;;2.25;1.13;;;21.30;51.80;;;;;;5128409;28;20027;-77
2022/07/13 06:46:57;;;;;;;2.30;0.88;;;21.50;51.70;;;;;;5128541;28;20110;-78
2022/07/13 06:49:23;;;;;;;5.20;1.35;;;21.50;52.30;;;;;;5128922;28;20028;-77
2022/07/13 06:51:48;;;;;;;3.70;1.83;;;21.60;52.20;;;;;;5128879;28;20035;-78
2022/07/13 06:54:14;;;;;;;3.72;1.10;;;21.70;53.60;;;;;;5128830;28;20026;-78
2022/07/13 06:56:40;;;;;;;3.20;0.88;;;21.80;52.80;;;;;;5128008;28;20036;-78
2022/07/13 06:59:06;;;;;;;2.47;0.75;;;22.00;52.20;;;;;;5128186;28;20035;-79
2022/07/13 07:01:32;;;;;;;1.20;0.75;;;22.20;51.70;;;;;;5128150;28;20096;-78
2022/07/13 07:03:57;;;;;;;3.47;0.90;;;22.30;50.20;;;;;;5128203;28;20024;-80
2022/07/13 07:06:23;;;;;;;5.75;0.80;;;22.50;49.40;;;;;;5127913;28;20111;-76
2022/07/13 07:08:49;;;;;;;1.90;0.60;;;22.60;46.80;;;;;;5128069;28;20023;-75
2022/07/13 07:11:14;;;;;;;1.98;0.40;;;22.70;42.40;;;;;;5130667;27;20496;-83
2022/07/13 07:13:40;;;;;;;6.85;1.05;;;22.90;42.90;;;;;;5131669;27;20036;-83
2022/07/13 07:16:05;;;;;;;1.90;0.60;;;22.90;42.90;;;;;;5097956;28;20019;-75
2022/07/13 07:18:31;;;;;;;5.32;0.73;;;23.00;41.10;;;;;;5131851;27;20122;-74
2022/07/13 07:20:57;;;;;;;5.47;0.90;;;23.20;41.40;;;;;;5131807;27;20019;-74
2022/07/13 07:23:22;;;;;;;4.85;0.32;;;23.30;40.70;;;;;;5131422;27;20065;-75
2022/07/13 07:25:48;;;;;;;1.48;0.57;;;23.40;39.60;;;;;;5131328;27;20031;-73
2022/07/13 07:28:13;;;;;;;0.45;0.30;;;23.40;38.80;;;;;;5131287;27;20114;-74
2022/07/13 07:30:39;;;;;;;1.27;0.30;;;23.50;38.70;;;;;;5130990;27;20429;-73
2022/07/13 07:33:04;;;;;;;2.05;0.38;;;23.60;38.80;;;;;;5131040;27;20086;-75
2022/07/13 07:35:30;;;;;;;1.80;0.40;;;23.60;38.20;;;;;;5131778;27;20019;-75
2022/07/13 07:37:56;;;;;;;2.88;0.50;;;23.80;37.90;;;;;;5131295;27;20026;-75
2022/07/13 07:40:22;;;;;;;1.83;0.40;;;23.90;38.00;;;;;;5130852;27;20027;-75
2022/07/13 07:42:48;;;;;;;2.50;0.60;;;24.00;38.10;;;;;;5113984;28;20380;-74
2022/07/13 07:45:14;;;;;;;0.50;0.50;;;24.10;37.00;;;;;;5131352;27;20115;-74
2022/07/13 07:47:40;;;;;;;1.17;0.40;;;24.20;37.40;;;;;;5131317;27;20428;-75
2022/07/13 07:50:07;;;;;;;0.75;0.50;;;24.30;37.80;;;;;;5131334;27;20495;-75
2022/07/13 07:52:34;;;;;;;0.57;0.30;;;24.40;37.20;;;;;;5131029;27;20110;-76
2022/07/13 07:54:59;;;;;;;0.63;0.30;;;24.50;36.80;;;;;;5131132;27;20024;-75
2022/07/13 07:57:25;;;;;;;1.77;0.50;;;24.70;36.00;;;;;;5130697;27;20071;-77
2022/07/13 07:59:51;;;;;;;1.42;0.43;;;24.80;35.20;;;;;;5113358;27;20042;-75
2022/07/13 08:02:17;;;;;;;2.10;0.40;;;24.90;35.40;;;;;;5130601;27;20019;-77
2022/07/13 08:04:44;;;;;;;0.90;0.30;;;24.90;35.40;;;;;;5130920;27;20020;-74
2022/07/13 08:07:10;;;;;;;0.60;0.40;;;25.00;35.10;;;;;;5130670;27;20046;-72
2022/07/13 08:09:36;;;;;;;1.40;1.20;;;25.10;33.10;;;;;;5130608;27;20633;-74
2022/07/13 08:12:04;;;;;;;0.82;0.40;;;25.10;34.00;;;;;;5130515;27;20026;-75
2022/07/13 08:14:30;;;;;;;2.13;0.30;;;25.20;34.40;;;;;;5113674;28;20088;-75
2022/07/13 08:16:56;;;;;;;0.50;0.30;;;25.30;34.30;;;;;;5130812;27;20027;-76
2022/07/13 08:19:21;;;;;;;1.23;0.30;;;25.30;33.30;;;;;;5130293;27;20484;-76
2022/07/13 08:21:47;;;;;;;0.93;0.30;;;25.30;32.60;;;;;;5129792;27;20103;-75
2022/07/13 08:24:12;;;;;;;0.22;0.22;;;25.30;31.80;;;;;;5130330;27;20480;-76
2022/07/13 08:26:38;;;;;;;0.40;0.25;;;25.40;32.40;;;;;;5130340;27;20098;-75
2022/07/13 08:29:05;;;;;;;1.17;0.40;;;25.40;32.00;;;;;;5130379;27;20053;-75
2022/07/13 08:31:30;;;;;;;1.50;0.45;;;25.50;31.90;;;;;;5132550;27;20479;-76
2022/07/13 08:39:25;;;;;;;0.90;0.32;;;25.60;29.80;;;;;;5114340;28;20066;-75
2022/07/13 08:41:50;;;;;;;1.45;0.20;;;25.60;29.20;;;;;;5130159;27;20032;-76
2022/07/13 08:44:16;;;;;;;2.60;0.35;;;25.80;28.90;;;;;;5096148;28;20532;-75
2022/07/13 08:46:43;;;;;;;0.95;0.30;;;25.70;28.20;;;;;;5130160;27;20076;-75
2022/07/13 08:49:09;;;;;;;0.50;0.40;;;25.60;29.90;;;;;;5129762;27;20396;-76
2022/07/13 08:51:35;;;;;;;0.45;0.38;;;25.60;30.50;;;;;;5129813;27;20456;-76
2022/07/13 08:54:03;;;;;;;1.52;0.68;;;25.60;31.20;;;;;;5129989;27;20031;-76
2022/07/13 08:56:29;;;;;;;1.20;1.10;;;25.70;31.00;;;;;;5130180;27;20027;-75
2022/07/13 08:58:55;;;;;;;1.73;0.80;;;25.90;31.10;;;;;;5129169;27;20038;-75
2022/07/13 09:01:21;;;;;;;1.35;0.70;;;26.10;31.10;;;;;;5129691;27;20103;-76
2022/07/13 09:03:47;;;;;;;0.50;0.38;;;26.20;31.70;;;;;;5129597;27;20460;-75
2022/07/13 09:06:40;;;;;;;1.02;0.40;;;26.40;30.90;;;;;;5129394;27;20031;-76
2022/07/13 09:09:07;;;;;;;0.75;0.55;;;26.70;29.80;;;;;;5129768;27;20077;-76
2022/07/13 09:11:33;;;;;;;2.13;1.00;;;26.80;29.30;;;;;;5112296;28;20039;-74
2022/07/13 09:13:59;;;;;;;0.88;0.35;;;27.00;29.70;;;;;;5129358;27;20127;-74
2022/07/13 09:16:27;;;;;;;1.20;0.30;;;27.10;29.70;;;;;;5129254;27;20479;-76
2022/07/13 09:18:59;;;;;;;1.67;0.55;;;27.10;28.00;;;;;;5129227;27;20134;-76
2022/07/13 09:21:26;;;;;;;0.63;0.30;;;27.20;27.80;;;;;;5129566;27;20027;-75
2022/07/13 09:23:56;;;;;;;0.22;0.22;;;27.20;26.90;;;;;;5129515;27;20085;-76
2022/07/13 09:26:22;;;;;;;1.27;0.47;;;27.30;27.20;;;;;;5129258;27;20489;-76
2022/07/13 09:28:50;;;;;;;0.47;0.20;;;27.30;27.10;;;;;;5113546;28;20028;-75
2022/07/13 09:31:17;;;;;;;3.25;0.70;;;27.30;26.30;;;;;;5128838;27;20436;-76
2022/07/13 09:33:45;;;;;;;0.55;0.40;;;27.30;26.10;;;;;;5128821;27;20089;-76
2022/07/13 09:36:17;;;;;;;0.45;0.45;;;27.30;26.50;;;;;;5128773;27;20545;-76
2022/07/13 09:38:47;;;;;;;2.58;0.35;;;27.40;26.80;;;;;;5128936;27;20035;-76
2022/07/13 09:41:26;;;;;;;1.13;0.65;;;27.50;25.50;;;;;;5128743;27;20122;-75
2022/07/13 09:46:53;;;;;;;1.10;0.82;;;27.80;24.30;;;;;;5113058;28;20503;-76
2022/07/13 09:49:28;;;;;;;0.47;0.47;;;27.80;25.90;;;;;;5128877;27;20098;-75
2022/07/13 09:51:57;;;;;;;0.60;0.45;;;28.00;25.30;;;;;;5111788;28;20031;-76
2022/07/13 09:54:25;;;;;;;1.80;1.00;;;28.00;23.20;;;;;;5129195;27;20043;-76
2022/07/13 09:56:51;;;;;;;0.65;0.60;;;28.20;24.90;;;;;;5128551;27;20114;-76
2022/07/13 09:59:18;;;;;;;0.73;0.60;;;28.40;24.40;;;;;;5128909;27;20036;-76
2022/07/13 10:01:45;;;;;;;0.98;0.60;;;28.60;24.00;;;;;;5128422;27;20107;-76
2022/07/13 10:04:12;;;;;;;0.73;0.52;;;28.70;23.90;;;;;;5127977;27;20031;-76
2022/07/13 10:06:39;;;;;;;1.45;0.50;;;28.70;23.50;;;;;;5128592;27;20043;-75
2022/07/13 10:09:05;;;;;;;0.43;0.30;;;28.90;23.30;;;;;;5094414;28;20024;-77
2022/07/13 10:11:31;;;;;;;2.63;0.55;;;29.10;24.50;;;;;;5128444;27;20132;-77
2022/07/13 10:13:57;;;;;;;0.90;0.40;;;29.30;22.80;;;;;;5128211;28;20020;-76
2022/07/13 10:16:27;;;;;;;0.57;0.40;;;29.60;21.90;;;;;;5128211;28;20020;-75
2022/07/13 10:18:54;;;;;;;0.98;0.35;;;29.70;21.20;;;;;;5128163;28;20399;-76
2022/07/13 10:21:33;;;;;;;0.30;0.20;;;29.80;20.20;;;;;;5128168;28;20045;-76
2022/07/13 10:23:59;;;;;;;0.98;0.43;;;29.80;18.60;;;;;;5128508;28;20621;-75
2022/07/13 10:26:25;;;;;;;0.85;0.50;;;30.00;19.70;;;;;;5111677;28;20062;-75
2022/07/13 10:29:14;;;;;;;1.00;0.40;;;30.20;20.00;;;;;;5128821;28;20329;-75
2022/07/13 10:31:40;;;;;;;0.73;0.30;;;30.40;18.50;;;;;;5127479;28;20448;-75
2022/07/13 10:34:08;;;;;;;0.30;0.20;;;30.30;17.40;;;;;;5128944;28;20469;-77
2022/07/13 10:36:51;;;;;;;0.30;0.30;;;30.10;18.70;;;;;;5112779;28;20034;-76
2022/07/13 10:39:19;;;;;;;1.35;0.47;;;30.10;19.20;;;;;;5128689;28;20439;-76
2022/07/13 10:42:05;;;;;;;1.17;0.30;;;30.10;18.10;;;;;;5128619;28;20023;-76
2022/07/13 10:44:42;;;;;;;0.73;0.20;;;30.00;17.00;;;;;;5128834;28;20059;-75
2022/07/13 10:47:13;;;;;;;4.93;0.50;;;29.70;17.20;;;;;;5132221;27;20020;-75
2022/07/13 10:49:47;;;;;;;2.78;0.50;;;29.60;17.00;;;;;;5132428;27;20088;-77
2022/07/13 10:52:22;;;;;;;1.20;0.20;;;29.40;16.90;;;;;;5116560;28;20016;-76
2022/07/13 10:55:03;;;;;;;0.65;0.38;;;29.30;17.50;;;;;;5132741;27;20023;-77
2022/07/13 10:57:30;;;;;;;0.40;0.40;;;29.70;17.30;;;;;;5132698;27;20027;-78
2022/07/13 11:00:18;;;;;;;1.48;0.28;;;30.00;18.40;;;;;;5098296;28;20036;-76
2022/07/13 11:02:56;;;;;;;1.08;0.68;;;30.40;19.30;;;;;;5132281;27;20062;-76
2022/07/13 11:05:26;;;;;;;1.63;0.22;;;30.60;18.20;;;;;;5132366;27;20028;-78
2022/07/13 11:07:56;;;;;;;1.30;0.40;;;30.80;17.30;;;;;;5131945;27;20026;-80
2022/07/13 11:10:30;;;;;;;2.65;0.80;;;31.00;18.50;;;;;;5131922;27;20019;-76
2022/07/13 11:13:02;;;;;;;1.60;0.30;;;31.20;17.50;;;;;;5132057;27;20027;-75
2022/07/13 11:15:50;;;;;;;0.22;0.20;;;31.20;16.20;;;;;;5116048;28;20161;-77
2022/07/13 11:18:22;;;;;;;4.75;0.40;;;31.20;15.90;;;;;;5132378;27;20118;-76
2022/07/13 11:21:16;;;;;;;2.22;0.30;;;31.20;16.30;;;;;;5132461;27;20032;-80
2022/07/13 11:26:47;;;;;;;2.47;0.30;;;31.20;16.30;;;;;;5116035;28;20034;-80
2022/07/13 11:29:40;;;;;;;0.82;0.30;;;31.30;16.30;;;;;;5131815;27;20019;-80
2022/07/13 11:32:06;;;;;;;0.40;0.20;;;31.50;15.50;;;;;;5131852;27;20074;-80
2022/07/13 11:34:32;;;;;;;0.82;0.20;;;31.50;14.80;;;;;;5132397;27;20024;-79
2022/07/13 11:37:00;;;;;;;5.10;0.50;;;31.50;14.70;;;;;;5132489;27;20384;-78
2022/07/13 11:39:33;;;;;;;0.93;0.40;;;31.50;14.50;;;;;;5132015;27;20556;-79
2022/07/13 11:42:00;;;;;;;1.27;0.30;;;31.50;14.20;;;;;;5131853;27;20379;-80
2022/07/13 11:44:29;;;;;;;0.90;0.30;;;31.40;14.90;;;;;;5131857;27;20028;-80
2022/07/13 11:47:00;;;;;;;2.10;0.50;;;31.20;15.50;;;;;;5116056;28;20051;-80
2022/07/13 11:49:27;;;;;;;0.22;0.20;;;30.90;15.40;;;;;;5132033;27;20080;-80
2022/07/13 11:51:53;;;;;;;4.50;0.50;;;30.90;15.70;;;;;;5131665;27;20027;-78
2022/07/13 11:54:21;;;;;;;0.30;0.30;;;31.10;16.80;;;;;;5131526;27;20030;-79
2022/07/13 11:56:57;;;;;;;0.30;0.30;;;31.30;15.50;;;;;;5130646;27;20023;-78
2022/07/13 11:59:39;;;;;;;3.70;0.60;;;31.60;16.50;;;;;;5131872;27;20076;-77
2022/07/13 12:02:08;;;;;;;0.40;0.30;;;31.90;16.10;;;;;;5131863;27;20421;-76
2022/07/13 12:04:46;;;;;;;0.28;0.25;;;32.20;16.70;;;;;;5131546;27;20024;-77
2022/07/13 12:07:19;;;;;;;0.85;0.30;;;32.60;15.90;;;;;;5130943;27;20054;-78
2022/07/13 12:09:47;;;;;;;2.75;0.50;;;32.70;15.00;;;;;;5115567;28;20426;-79
2022/07/13 12:12:14;;;;;;;0.57;0.30;;;32.70;14.40;;;;;;5115832;28;20102;-79
2022/07/13 12:14:42;;;;;;;0.98;0.20;;;32.90;15.00;;;;;;5115712;28;20023;-79
2022/07/13 12:17:08;;;;;;;2.30;0.40;;;33.00;14.60;;;;;;5132737;27;20028;-77
2022/07/13 12:19:36;;;;;;;0.60;0.20;;;33.10;14.30;;;;;;5131751;27;20372;-80
2022/07/13 12:22:01;;;;;;;1.00;0.20;;;33.20;15.10;;;;;;5131245;27;20022;-78
2022/07/13 12:24:29;;;;;;;3.40;0.70;;;33.00;14.80;;;;;;5131561;27;20024;-77
2022/07/13 12:26:55;;;;;;;2.22;0.20;;;32.80;14.20;;;;;;5131254;27;20041;-78
2022/07/13 12:29:31;;;;;;;4.13;0.30;;;32.70;15.00;;;;;;5131208;27;20499;-78
2022/07/13 12:31:58;;;;;;;0.32;0.32;;;32.20;15.60;;;;;;5131014;27;20040;-77
2022/07/13 12:34:26;;;;;;;0.90;0.40;;;32.10;15.80;;;;;;5130921;27;20061;-78
2022/07/13 12:36:51;;;;;;;4.30;0.40;;;32.20;15.80;;;;;;5130988;27;20024;-79
2022/07/13 12:39:35;;;;;;;2.92;0.40;;;32.40;16.10;;;;;;5130905;27;20036;-78
2022/07/13 12:42:01;;;;;;;1.23;0.20;;;32.20;14.20;;;;;;5130840;27;20020;-79
2022/07/13 12:44:29;;;;;;;5.78;0.40;;;32.40;14.60;;;;;;5130663;27;20028;-77
2022/07/13 12:46:58;;;;;;;1.02;0.28;;;32.50;15.30;;;;;;5130522;27;20020;-76
2022/07/13 12:49:37;;;;;;;1.88;0.38;;;32.80;15.60;;;;;;5130735;27;20035;-76
2022/07/13 12:52:05;;;;;;;2.53;0.40;;;32.90;15.20;;;;;;5129988;27;20428;-78
2022/07/13 12:54:50;;;;;;;0.98;0.30;;;33.20;14.60;;;;;;5130195;27;20031;-76
2022/07/13 12:57:21;;;;;;;1.55;0.52;;;33.60;13.60;;;;;;5130447;27;20410;-77
2022/07/13 12:59:58;;;;;;;3.00;0.35;;;34.00;14.70;;;;;;5130715;27;20109;-76